createdAt,value
2022-10-29T00:00:03.144Z,865.16
2022-10-29T00:01:03.135Z,865.15
2022-10-29T00:02:03.230Z,865.18
2022-10-29T00:03:03.211Z,865.16
2022-10-29T00:04:03.139Z,865.14
2022-10-29T00:05:03.100Z,865.15
2022-10-29T00:06:03.080Z,865.07
2022-10-29T00:07:03.082Z,865.06
2022-10-29T00:08:03.113Z,865.08
2022-10-29T00:09:03.047Z,865.09
2022-10-29T00:10:03.037Z,865.07
2022-10-29T00:11:03.133Z,865.06
2022-10-29T00:12:03.015Z,865.06
2022-10-29T00:13:03.004Z,865.06
2022-10-29T00:14:03.061Z,865.04
2022-10-29T00:15:02.985Z,865.06
2022-10-29T00:16:02.971Z,865.06
2022-10-29T00:17:02.975Z,865.09
2022-10-29T00:18:02.951Z,865.09
2022-10-29T00:19:02.935Z,865.08
2022-10-29T00:20:03.005Z,865.08
2022-10-29T00:21:02.923Z,865.10
2022-10-29T00:22:02.906Z,865.07
2022-10-29T00:23:02.909Z,865.13
2022-10-29T00:24:02.885Z,865.11
2022-10-29T00:25:02.873Z,865.09
2022-10-29T00:26:02.879Z,865.05
2022-10-29T00:27:02.850Z,865.07
2022-10-29T00:28:02.862Z,865.08
2022-10-29T00:29:02.830Z,865.06
2022-10-29T00:30:02.820Z,865.08
2022-10-29T00:31:02.806Z,865.08
2022-10-29T00:32:02.996Z,865.11
2022-10-29T00:33:02.786Z,865.11
2022-10-29T00:34:02.777Z,865.13
2022-10-29T00:35:02.766Z,865.11
2022-10-29T00:36:02.776Z,865.11
2022-10-29T00:37:02.742Z,865.06
2022-10-29T00:38:02.796Z,865.10
2022-10-29T00:39:02.743Z,865.06
2022-10-29T00:40:02.773Z,865.08
2022-10-29T00:41:02.700Z,865.07
2022-10-29T00:42:02.689Z,865.07
2022-10-29T00:43:02.723Z,865.06
2022-10-29T00:44:02.680Z,865.06
2022-10-29T00:45:02.661Z,865.06
2022-10-29T00:46:02.645Z,865.11
2022-10-29T00:47:02.635Z,865.09
2022-10-29T00:48:02.675Z,865.08
2022-10-29T00:49:02.613Z,865.07
2022-10-29T00:50:02.630Z,865.11
2022-10-29T00:51:02.590Z,865.16
2022-10-29T00:52:02.613Z,865.15
2022-10-29T00:53:02.567Z,865.10
2022-10-29T00:54:02.640Z,865.14
2022-10-29T00:55:02.550Z,865.19
2022-10-29T00:56:02.539Z,865.18
2022-10-29T00:57:02.524Z,865.19
2022-10-29T00:58:02.525Z,865.17
2022-10-29T00:59:02.503Z,865.13
2022-10-29T01:00:02.548Z,865.17
2022-10-29T01:01:02.494Z,865.14
2022-10-29T01:02:02.631Z,865.15
2022-10-29T01:03:02.570Z,865.16
2022-10-29T01:04:02.451Z,865.17
2022-10-29T01:05:02.439Z,865.13
2022-10-29T01:06:02.448Z,865.13
2022-10-29T01:07:02.426Z,865.13
2022-10-29T01:08:02.429Z,865.15
2022-10-29T01:09:02.406Z,865.09
2022-10-29T01:10:02.383Z,865.05
2022-10-29T01:11:02.374Z,865.07
2022-10-29T01:12:02.429Z,865.04
2022-10-29T01:13:02.349Z,865.06
2022-10-29T01:14:02.345Z,865.07
2022-10-29T01:15:02.327Z,865.04
2022-10-29T01:16:02.324Z,865.05
2022-10-29T01:17:02.317Z,865.04
2022-10-29T01:18:02.331Z,865.04
2022-10-29T01:19:02.349Z,865.03
2022-10-29T01:20:02.276Z,865.06
2022-10-29T01:21:02.273Z,865.04
2022-10-29T01:22:02.265Z,865.01
2022-10-29T01:23:02.245Z,865.03
2022-10-29T01:24:02.261Z,865.00
2022-10-29T01:25:02.233Z,864.99
2022-10-29T01:26:02.209Z,865.00
2022-10-29T01:27:02.203Z,865.02
2022-10-29T01:28:02.192Z,865.02
2022-10-29T01:29:02.180Z,865.01
2022-10-29T01:30:02.273Z,865.00
2022-10-29T01:31:02.169Z,865.05
2022-10-29T01:32:02.144Z,865.06
2022-10-29T01:33:02.136Z,865.02
2022-10-29T01:34:02.124Z,865.03
2022-10-29T01:35:02.216Z,865.05
2022-10-29T01:36:02.134Z,865.05
2022-10-29T01:37:02.090Z,865.03
2022-10-29T01:38:02.078Z,865.05
2022-10-29T01:39:02.074Z,865.07
2022-10-29T01:40:02.092Z,865.04
2022-10-29T01:41:02.061Z,865.07
2022-10-29T01:42:02.126Z,865.03
2022-10-29T01:43:02.027Z,865.02
2022-10-29T01:44:02.023Z,865.00
2022-10-29T01:45:02.005Z,864.98
2022-10-29T01:46:01.994Z,865.00
2022-10-29T01:47:01.983Z,865.02
2022-10-29T01:48:02.061Z,864.93
2022-10-29T01:49:01.963Z,864.97
2022-10-29T01:50:01.960Z,864.95
2022-10-29T01:51:01.942Z,864.92
2022-10-29T01:52:01.930Z,864.93
2022-10-29T01:53:01.941Z,864.90
2022-10-29T01:54:01.974Z,864.88
2022-10-29T01:55:01.900Z,864.82
2022-10-29T01:56:01.902Z,864.82
2022-10-29T01:57:01.880Z,864.82
2022-10-29T01:58:01.987Z,864.81
2022-10-29T01:59:01.866Z,864.80
2022-10-29T02:00:01.876Z,864.78
2022-10-29T02:01:01.890Z,864.78
2022-10-29T02:02:01.855Z,864.78
2022-10-29T02:03:02.293Z,864.81
2022-10-29T02:04:01.798Z,864.74
2022-10-29T02:05:01.797Z,864.81
2022-10-29T02:06:01.793Z,864.75
2022-10-29T02:07:01.769Z,864.80
2022-10-29T02:08:01.756Z,864.78
2022-10-29T02:09:01.758Z,864.78
2022-10-29T02:10:01.732Z,864.78
2022-10-29T02:11:01.809Z,864.79
2022-10-29T02:12:01.735Z,864.75
2022-10-29T02:13:01.704Z,864.79
2022-10-29T02:14:01.705Z,864.79
2022-10-29T02:15:01.763Z,864.80
2022-10-29T02:16:01.667Z,864.77
2022-10-29T02:17:01.659Z,864.81
2022-10-29T02:18:01.701Z,864.84
2022-10-29T02:19:01.640Z,864.79
2022-10-29T02:20:01.634Z,864.83
2022-10-29T02:21:01.615Z,864.81
2022-10-29T02:22:01.603Z,864.82
2022-10-29T02:23:01.635Z,864.80
2022-10-29T02:24:01.594Z,864.83
2022-10-29T02:25:01.678Z,864.77
2022-10-29T02:26:01.560Z,864.76
2022-10-29T02:27:01.550Z,864.75
2022-10-29T02:28:01.570Z,864.71
2022-10-29T02:29:01.580Z,864.69
2022-10-29T02:30:01.537Z,864.68
2022-10-29T02:31:01.601Z,864.63
2022-10-29T02:32:01.493Z,864.67
2022-10-29T02:33:01.486Z,864.69
2022-10-29T02:34:01.474Z,864.63
2022-10-29T02:35:01.552Z,864.63
2022-10-29T02:36:01.453Z,864.62
2022-10-29T02:37:01.443Z,864.63
2022-10-29T02:38:01.428Z,864.62
2022-10-29T02:39:01.421Z,864.64
2022-10-29T02:40:01.406Z,864.58
2022-10-29T02:41:01.448Z,864.56
2022-10-29T02:42:01.385Z,864.54
2022-10-29T02:43:01.379Z,864.57
2022-10-29T02:44:01.385Z,864.52
2022-10-29T02:45:01.357Z,864.55
2022-10-29T02:46:01.340Z,864.57
2022-10-29T02:47:01.409Z,864.53
2022-10-29T02:48:01.326Z,864.50
2022-10-29T02:49:01.320Z,864.52
2022-10-29T02:50:01.302Z,864.47
2022-10-29T02:51:01.293Z,864.45
2022-10-29T02:52:01.288Z,864.45
2022-10-29T02:53:01.355Z,864.48
2022-10-29T02:54:01.258Z,864.47
2022-10-29T02:55:01.246Z,864.45
2022-10-29T02:56:01.240Z,864.41
2022-10-29T02:57:01.224Z,864.38
2022-10-29T02:58:01.211Z,864.37
2022-10-29T02:59:01.364Z,864.43
2022-10-29T03:00:01.210Z,864.40
2022-10-29T03:01:01.184Z,864.46
2022-10-29T03:02:01.338Z,864.44
2022-10-29T03:03:01.523Z,864.46
2022-10-29T03:04:01.152Z,864.42
2022-10-29T03:05:01.191Z,864.41
2022-10-29T03:06:01.124Z,864.44
2022-10-29T03:07:01.118Z,864.45
2022-10-29T03:08:01.114Z,864.46
2022-10-29T03:09:01.106Z,864.43
2022-10-29T03:10:01.082Z,864.43
2022-10-29T03:11:01.124Z,864.41
2022-10-29T03:12:01.076Z,864.44
2022-10-29T03:13:01.052Z,864.44
2022-10-29T03:14:01.040Z,864.37
2022-10-29T03:15:01.041Z,864.44
2022-10-29T03:16:01.037Z,864.40
2022-10-29T03:17:01.051Z,864.46
2022-10-29T03:18:01.007Z,864.42
2022-10-29T03:19:00.986Z,864.45
2022-10-29T03:20:00.975Z,864.42
2022-10-29T03:21:00.965Z,864.45
2022-10-29T03:22:00.954Z,864.45
2022-10-29T03:23:01.000Z,864.42
2022-10-29T03:24:01.036Z,864.39
2022-10-29T03:25:00.925Z,864.43
2022-10-29T03:26:00.908Z,864.39
2022-10-29T03:27:00.901Z,864.37
2022-10-29T03:28:00.887Z,864.40
2022-10-29T03:29:00.900Z,864.37
2022-10-29T03:30:00.876Z,864.38
2022-10-29T03:31:00.860Z,864.34
2022-10-29T03:32:00.866Z,864.35
2022-10-29T03:33:00.834Z,864.34
2022-10-29T03:34:00.822Z,864.37
2022-10-29T03:35:00.826Z,864.34
2022-10-29T03:36:00.875Z,864.38
2022-10-29T03:37:00.790Z,864.35
2022-10-29T03:38:00.899Z,864.31
2022-10-29T03:39:00.769Z,864.34
2022-10-29T03:40:00.759Z,864.32
2022-10-29T03:41:00.788Z,864.31
2022-10-29T03:42:00.734Z,864.33
2022-10-29T03:43:00.729Z,864.35
2022-10-29T03:44:00.823Z,864.31
2022-10-29T03:45:00.705Z,864.32
2022-10-29T03:46:00.692Z,864.36
2022-10-29T03:47:00.723Z,864.31
2022-10-29T03:48:00.691Z,864.39
2022-10-29T03:49:00.659Z,864.34
2022-10-29T03:50:00.657Z,864.35
2022-10-29T03:51:00.651Z,864.32
2022-10-29T03:52:00.624Z,864.28
2022-10-29T03:53:00.649Z,864.31
2022-10-29T03:54:00.603Z,864.31
2022-10-29T03:55:00.606Z,864.33
2022-10-29T03:56:00.582Z,864.37
2022-10-29T03:57:00.573Z,864.37
2022-10-29T03:58:00.560Z,864.38
2022-10-29T03:59:00.660Z,864.38
2022-10-29T04:00:00.537Z,864.38
2022-10-29T04:01:00.543Z,864.37
2022-10-29T04:02:00.695Z,864.40
2022-10-29T04:03:00.735Z,864.38
2022-10-29T04:04:00.515Z,864.39
2022-10-29T04:05:00.520Z,864.39
2022-10-29T04:06:00.478Z,864.38
2022-10-29T04:07:00.476Z,864.41
2022-10-29T04:08:00.451Z,864.42
2022-10-29T04:09:00.439Z,864.42
2022-10-29T04:10:00.433Z,864.38
2022-10-29T04:11:00.477Z,864.37
2022-10-29T04:12:00.419Z,864.38
2022-10-29T04:13:00.409Z,864.40
2022-10-29T04:14:00.389Z,864.38
2022-10-29T04:15:00.375Z,864.42
2022-10-29T04:16:00.366Z,864.42
2022-10-29T04:17:00.390Z,864.44
2022-10-29T04:18:00.345Z,864.43
2022-10-29T04:19:00.342Z,864.42
2022-10-29T04:20:00.344Z,864.42
2022-10-29T04:24:18.804Z,864.43
2022-10-29T04:28:36.588Z,864.43
2022-10-29T04:29:01.283Z,864.45
2022-10-29T04:30:00.411Z,864.42
2022-10-29T04:31:00.204Z,864.38
2022-10-29T04:32:00.194Z,864.42
2022-10-29T04:33:00.404Z,864.40
2022-10-29T04:34:00.184Z,864.45
2022-10-29T04:35:00.213Z,864.46
2022-10-29T04:36:00.168Z,864.41
2022-10-29T04:37:00.172Z,864.41
2022-10-29T04:38:00.126Z,864.43
2022-10-29T04:39:00.118Z,864.44
2022-10-29T04:40:00.105Z,864.38
2022-10-29T04:41:00.150Z,864.38
2022-10-29T04:42:00.096Z,864.35
2022-10-29T04:43:00.079Z,864.37
2022-10-29T04:44:00.087Z,864.35
2022-10-29T04:45:00.072Z,864.34
2022-10-29T04:46:00.043Z,864.31
2022-10-29T04:47:00.078Z,864.35
2022-10-29T04:48:00.026Z,864.35
2022-10-29T04:49:00.067Z,864.37
2022-10-29T04:49:59.997Z,864.38
2022-10-29T04:51:00.002Z,864.38
2022-10-29T04:52:00.001Z,864.38
2022-10-29T04:53:00.011Z,864.39
2022-10-29T04:53:59.973Z,864.39
2022-10-29T04:54:59.943Z,864.40
2022-10-29T04:55:59.933Z,864.43
2022-10-29T04:56:59.918Z,864.44
2022-10-29T04:57:59.910Z,864.43
2022-10-29T04:58:59.925Z,864.46
2022-10-29T04:59:59.897Z,864.45
2022-10-29T05:01:00.009Z,864.44
2022-10-29T05:01:59.867Z,864.42
2022-10-29T05:03:00.359Z,864.45
2022-10-29T05:04:00.277Z,864.39
2022-10-29T05:04:59.864Z,864.38
2022-10-29T05:05:59.825Z,864.38
2022-10-29T05:06:59.810Z,864.36
2022-10-29T05:07:59.822Z,864.36
2022-10-29T05:08:59.806Z,864.38
2022-10-29T05:09:59.786Z,864.35
2022-10-29T05:10:59.788Z,864.34
2022-10-29T05:11:59.758Z,864.30
2022-10-29T05:12:59.747Z,864.30
2022-10-29T05:13:59.740Z,864.30
2022-10-29T05:14:59.737Z,864.27
2022-10-29T05:15:59.798Z,864.30
2022-10-29T05:16:59.738Z,864.28
2022-10-29T05:17:59.761Z,864.31
2022-10-29T05:18:59.681Z,864.30
2022-10-29T05:19:59.670Z,864.31
2022-10-29T05:20:59.671Z,864.30
2022-10-29T05:21:59.844Z,864.31
2022-10-29T05:22:59.639Z,864.32
2022-10-29T05:23:59.648Z,864.27
2022-10-29T05:24:59.617Z,864.28
2022-10-29T05:25:59.618Z,864.29
2022-10-29T05:26:59.600Z,864.30
2022-10-29T05:27:59.624Z,864.33
2022-10-29T05:28:59.572Z,864.31
2022-10-29T05:29:59.566Z,864.29
2022-10-29T05:30:59.554Z,864.28
2022-10-29T05:31:59.550Z,864.26
2022-10-29T05:32:59.713Z,864.24
2022-10-29T05:33:59.578Z,864.24
2022-10-29T05:34:59.530Z,864.27
2022-10-29T05:35:59.498Z,864.27
2022-10-29T05:36:59.488Z,864.21
2022-10-29T05:37:59.487Z,864.25
2022-10-29T05:38:59.461Z,864.23
2022-10-29T05:39:59.487Z,864.26
2022-10-29T05:40:59.447Z,864.24
2022-10-29T05:41:59.444Z,864.25
2022-10-29T05:42:59.721Z,864.22
2022-10-29T05:43:59.413Z,864.26
2022-10-29T05:44:59.398Z,864.27
2022-10-29T05:45:59.413Z,864.23
2022-10-29T05:46:59.375Z,864.24
2022-10-29T05:47:59.481Z,864.25
2022-10-29T05:48:59.387Z,864.24
2022-10-29T05:49:59.345Z,864.24
2022-10-29T05:50:59.341Z,864.30
2022-10-29T05:51:59.343Z,864.28
2022-10-29T05:52:59.604Z,864.28
2022-10-29T05:53:59.321Z,864.27
2022-10-29T05:54:59.289Z,864.28
2022-10-29T05:55:59.299Z,864.32
2022-10-29T05:56:59.269Z,864.27
2022-10-29T05:57:59.279Z,864.29
2022-10-29T05:58:59.246Z,864.28
2022-10-29T05:59:59.249Z,864.26
2022-10-29T06:00:59.227Z,864.27
2022-10-29T06:01:59.362Z,864.22
2022-10-29T06:02:59.736Z,864.24
2022-10-29T06:03:59.236Z,864.23
2022-10-29T06:04:59.178Z,864.27
2022-10-29T06:05:59.182Z,864.25
2022-10-29T06:06:59.158Z,864.25
2022-10-29T06:07:59.501Z,864.25
2022-10-29T06:08:59.135Z,864.23
2022-10-29T06:09:59.156Z,864.24
2022-10-29T06:10:59.115Z,864.22
2022-10-29T06:11:59.134Z,864.26
2022-10-29T06:12:59.093Z,864.25
2022-10-29T06:13:59.093Z,864.26
2022-10-29T06:14:59.070Z,864.26
2022-10-29T06:15:59.138Z,864.23
2022-10-29T06:16:59.049Z,864.27
2022-10-29T06:17:59.167Z,864.28
2022-10-29T06:18:59.038Z,864.29
2022-10-29T06:19:59.020Z,864.29
2022-10-29T06:20:59.005Z,864.29
2022-10-29T06:22:00.457Z,864.30
2022-10-29T06:22:59.304Z,864.32
2022-10-29T06:23:58.976Z,864.35
2022-10-29T06:24:58.961Z,864.34
2022-10-29T06:25:58.952Z,864.34
2022-10-29T06:26:58.943Z,864.33
2022-10-29T06:27:59.001Z,864.32
2022-10-29T06:28:58.929Z,864.35
2022-10-29T06:29:58.918Z,864.35
2022-10-29T06:30:58.895Z,864.34
2022-10-29T06:31:58.901Z,864.37
2022-10-29T06:32:59.082Z,864.34
2022-10-29T06:33:58.920Z,864.39
2022-10-29T06:34:58.863Z,864.38
2022-10-29T06:35:58.844Z,864.37
2022-10-29T06:36:58.830Z,864.41
2022-10-29T06:37:59.221Z,864.32
2022-10-29T06:38:58.810Z,864.38
2022-10-29T06:39:58.912Z,864.39
2022-10-29T06:40:58.793Z,864.41
2022-10-29T06:41:58.777Z,864.44
2022-10-29T06:42:58.766Z,864.41
2022-10-29T06:43:58.775Z,864.39
2022-10-29T06:44:58.755Z,864.44
2022-10-29T06:45:58.781Z,864.45
2022-10-29T06:46:58.722Z,864.44
2022-10-29T06:47:59.160Z,864.45
2022-10-29T06:48:58.713Z,864.42
2022-10-29T06:49:58.694Z,864.45
2022-10-29T06:50:58.695Z,864.46
2022-10-29T06:51:58.744Z,864.47
2022-10-29T06:52:59.085Z,864.48
2022-10-29T06:53:58.646Z,864.49
2022-10-29T06:54:58.684Z,864.47
2022-10-29T06:55:58.636Z,864.48
2022-10-29T06:56:58.612Z,864.46
2022-10-29T06:57:58.673Z,864.49
2022-10-29T06:58:58.613Z,864.44
2022-10-29T07:00:02.167Z,864.51
2022-10-29T07:00:59.586Z,864.47
2022-10-29T07:01:58.619Z,864.52
2022-10-29T07:02:58.916Z,864.53
2022-10-29T07:03:58.537Z,864.52
2022-10-29T07:04:58.536Z,864.54
2022-10-29T07:05:58.513Z,864.58
2022-10-29T07:06:58.502Z,864.60
2022-10-29T07:07:58.901Z,864.64
2022-10-29T07:08:58.550Z,864.60
2022-10-29T07:09:58.472Z,864.59
2022-10-29T07:10:58.459Z,864.62
2022-10-29T07:11:58.448Z,864.66
2022-10-29T07:12:58.437Z,864.65
2022-10-29T07:13:58.445Z,864.64
2022-10-29T07:14:58.460Z,864.66
2022-10-29T07:15:58.427Z,864.66
2022-10-29T07:16:58.392Z,864.63
2022-10-29T07:17:58.931Z,864.63
2022-10-29T07:18:58.371Z,864.60
2022-10-29T07:19:58.376Z,864.59
2022-10-29T07:20:58.415Z,864.58
2022-10-29T07:21:58.340Z,864.58
2022-10-29T07:22:58.333Z,864.54
2022-10-29T07:23:58.317Z,864.55
2022-10-29T07:25:01.129Z,864.59
2022-10-29T07:25:58.307Z,864.58
2022-10-29T07:26:58.335Z,864.58
2022-10-29T07:27:58.711Z,864.58
2022-10-29T07:28:58.261Z,864.55
2022-10-29T07:29:58.253Z,864.53
2022-10-29T07:30:58.244Z,864.53
2022-10-29T07:31:58.259Z,864.58
2022-10-29T07:32:58.275Z,864.54
2022-10-29T07:33:58.209Z,864.56
2022-10-29T07:34:58.197Z,864.54
2022-10-29T07:35:58.188Z,864.58
2022-10-29T07:36:58.186Z,864.60
2022-10-29T07:37:58.598Z,864.59
2022-10-29T07:38:58.211Z,864.60
2022-10-29T07:39:58.143Z,864.59
2022-10-29T07:40:58.146Z,864.63
2022-10-29T07:41:59.289Z,864.67
2022-10-29T07:42:58.513Z,864.60
2022-10-29T07:43:58.099Z,864.61
2022-10-29T07:44:58.137Z,864.65
2022-10-29T07:45:58.079Z,864.66
2022-10-29T07:46:58.082Z,864.72
2022-10-29T07:48:02.543Z,864.75
2022-10-29T07:48:59.044Z,864.70
2022-10-29T07:49:58.037Z,864.75
2022-10-29T07:50:58.047Z,864.74
2022-10-29T07:51:58.013Z,864.75
2022-10-29T07:52:58.366Z,864.77
2022-10-29T07:53:57.991Z,864.74
2022-10-29T07:54:57.977Z,864.78
2022-10-29T07:55:57.968Z,864.77
2022-10-29T07:56:58.007Z,864.77
2022-10-29T07:57:58.357Z,864.76
2022-10-29T07:58:57.942Z,864.79
2022-10-29T07:59:57.924Z,864.78
2022-10-29T08:00:57.942Z,864.78
2022-10-29T08:01:57.997Z,864.81
2022-10-29T08:02:57.955Z,864.76
2022-10-29T08:03:57.896Z,864.71
2022-10-29T08:04:57.880Z,864.75
2022-10-29T08:05:57.863Z,864.72
2022-10-29T08:06:57.850Z,864.72
2022-10-29T08:07:58.321Z,864.73
2022-10-29T08:08:57.854Z,864.72
2022-10-29T08:09:57.814Z,864.74
2022-10-29T08:10:57.817Z,864.71
2022-10-29T08:11:57.795Z,864.76
2022-10-29T08:12:58.171Z,864.71
2022-10-29T08:13:57.770Z,864.73
2022-10-29T08:14:57.787Z,864.70
2022-10-29T08:15:57.765Z,864.66
2022-10-29T08:16:57.742Z,864.71
2022-10-29T08:17:57.734Z,864.69
2022-10-29T08:18:57.813Z,864.67
2022-10-29T08:19:57.729Z,864.68
2022-10-29T08:20:57.725Z,864.68
2022-10-29T08:21:57.687Z,864.67
2022-10-29T08:22:58.028Z,864.71
2022-10-29T08:23:57.796Z,864.70
2022-10-29T08:24:57.664Z,864.77
2022-10-29T08:25:57.641Z,864.69
2022-10-29T08:26:58.343Z,864.71
2022-10-29T08:27:57.686Z,864.71
2022-10-29T08:28:57.622Z,864.70
2022-10-29T08:29:57.597Z,864.69
2022-10-29T08:30:57.588Z,864.71
2022-10-29T08:31:57.614Z,864.73
2022-10-29T08:32:58.138Z,864.74
2022-10-29T08:33:57.572Z,864.77
2022-10-29T08:34:57.547Z,864.65
2022-10-29T08:35:57.550Z,864.64
2022-10-29T08:36:57.521Z,864.66
2022-10-29T08:37:57.539Z,864.68
2022-10-29T08:38:57.513Z,864.68
2022-10-29T08:39:57.487Z,864.68
2022-10-29T08:40:57.480Z,864.63
2022-10-29T08:41:57.475Z,864.65
2022-10-29T08:42:57.800Z,864.63
2022-10-29T08:43:57.523Z,864.60
2022-10-29T08:44:57.458Z,864.57
2022-10-29T08:45:57.422Z,864.56
2022-10-29T08:46:57.416Z,864.59
2022-10-29T08:47:57.729Z,864.60
2022-10-29T08:48:57.404Z,864.55
2022-10-29T08:49:57.416Z,864.55
2022-10-29T08:50:57.373Z,864.53
2022-10-29T08:51:57.380Z,864.52
2022-10-29T08:53:22.713Z,864.51
2022-10-29T08:54:58.326Z,864.53
2022-10-29T08:55:57.354Z,864.50
2022-10-29T08:56:57.318Z,864.50
2022-10-29T08:57:57.779Z,864.52
2022-10-29T08:58:57.288Z,864.48
2022-10-29T08:59:57.380Z,864.48
2022-10-29T09:00:57.504Z,864.51
2022-10-29T09:01:57.389Z,864.48
2022-10-29T09:02:57.707Z,864.52
2022-10-29T09:03:57.230Z,864.52
2022-10-29T09:04:57.219Z,864.53
2022-10-29T09:05:57.219Z,864.51
2022-10-29T09:06:57.199Z,864.53
2022-10-29T09:07:59.699Z,864.52
2022-10-29T09:08:58.188Z,864.50
2022-10-29T09:09:57.165Z,864.54
2022-10-29T09:10:57.155Z,864.53
2022-10-29T09:11:57.143Z,864.56
2022-10-29T09:12:57.423Z,864.55
2022-10-29T09:13:57.185Z,864.51
2022-10-29T09:14:57.130Z,864.53
2022-10-29T09:15:57.897Z,864.56
2022-10-29T09:16:57.094Z,864.53
2022-10-29T09:17:57.464Z,864.58
2022-10-29T09:18:57.068Z,864.52
2022-10-29T09:19:57.086Z,864.54
2022-10-29T09:20:57.058Z,864.54
2022-10-29T09:21:57.040Z,864.52
2022-10-29T09:22:57.025Z,864.55
2022-10-29T09:23:57.040Z,864.51
2022-10-29T09:24:57.005Z,864.51
2022-10-29T09:25:57.045Z,864.52
2022-10-29T09:26:56.982Z,864.50
2022-10-29T09:27:57.354Z,864.45
2022-10-29T09:28:56.971Z,864.46
2022-10-29T09:29:56.951Z,864.44
2022-10-29T09:30:56.939Z,864.42
2022-10-29T09:31:56.962Z,864.44
2022-10-29T09:32:56.921Z,864.43
2022-10-29T09:33:59.370Z,864.39
2022-10-29T09:34:56.906Z,864.40
2022-10-29T09:35:56.894Z,864.39
2022-10-29T09:36:56.888Z,864.37
2022-10-29T09:37:57.309Z,864.36
2022-10-29T09:38:56.853Z,864.29
2022-10-29T09:39:56.900Z,864.32
2022-10-29T09:40:56.829Z,864.33
2022-10-29T09:41:56.830Z,864.34
2022-10-29T09:42:56.812Z,864.34
2022-10-29T09:43:56.815Z,864.34
2022-10-29T09:44:56.798Z,864.38
2022-10-29T09:45:56.785Z,864.34
2022-10-29T09:46:56.765Z,864.32
2022-10-29T09:47:57.039Z,864.36
2022-10-29T09:48:56.776Z,864.34
2022-10-29T09:49:56.766Z,864.34
2022-10-29T09:50:56.740Z,864.35
2022-10-29T09:51:56.710Z,864.39
2022-10-29T09:52:57.039Z,864.37
2022-10-29T09:53:56.692Z,864.35
2022-10-29T09:54:56.708Z,864.42
2022-10-29T09:55:56.684Z,864.37
2022-10-29T09:56:56.672Z,864.36
2022-10-29T09:57:56.645Z,864.36
2022-10-29T09:58:56.638Z,864.39
2022-10-29T09:59:56.625Z,864.35
2022-10-29T10:00:56.713Z,864.35
2022-10-29T10:01:56.667Z,864.33
2022-10-29T10:02:57.047Z,864.35
2022-10-29T10:03:56.633Z,864.35
2022-10-29T10:04:56.570Z,864.32
2022-10-29T10:05:56.572Z,864.36
2022-10-29T10:06:56.582Z,864.35
2022-10-29T10:07:56.892Z,864.32
2022-10-29T10:08:56.527Z,864.35
2022-10-29T10:09:56.520Z,864.33
2022-10-29T10:10:56.515Z,864.35
2022-10-29T10:11:56.534Z,864.35
2022-10-29T10:12:56.482Z,864.30
2022-10-29T10:13:56.484Z,864.34
2022-10-29T10:14:56.461Z,864.32
2022-10-29T10:15:56.447Z,864.29
2022-10-29T10:16:56.477Z,864.31
2022-10-29T10:17:56.913Z,864.26
2022-10-29T10:18:56.427Z,864.30
2022-10-29T10:19:56.405Z,864.27
2022-10-29T10:20:56.396Z,864.27
2022-10-29T10:21:56.383Z,864.27
2022-10-29T10:22:56.707Z,864.27
2022-10-29T10:23:56.387Z,864.24
2022-10-29T10:24:56.352Z,864.27
2022-10-29T10:26:00.347Z,864.31
2022-10-29T10:26:57.342Z,864.27
2022-10-29T10:27:56.690Z,864.30
2022-10-29T10:28:56.414Z,864.23
2022-10-29T10:29:56.433Z,864.23
2022-10-29T10:30:56.287Z,864.22
2022-10-29T10:31:56.277Z,864.23
2022-10-29T10:32:56.673Z,864.19
2022-10-29T10:33:56.252Z,864.14
2022-10-29T10:34:56.255Z,864.18
2022-10-29T10:35:56.247Z,864.17
2022-10-29T10:36:56.223Z,864.13
2022-10-29T10:37:56.466Z,864.06
2022-10-29T10:38:56.202Z,864.13
2022-10-29T10:39:56.201Z,864.14
2022-10-29T10:40:56.180Z,864.11
2022-10-29T10:41:56.202Z,864.10
2022-10-29T10:42:56.184Z,864.12
2022-10-29T10:43:56.161Z,864.10
2022-10-29T10:44:56.147Z,864.14
2022-10-29T10:45:56.123Z,864.08
2022-10-29T10:46:56.118Z,864.04
2022-10-29T10:47:56.475Z,864.03
2022-10-29T10:48:56.091Z,864.01
2022-10-29T10:49:56.087Z,864.03
2022-10-29T10:50:56.083Z,864.01
2022-10-29T10:51:56.064Z,864.03
2022-10-29T10:52:56.342Z,864.02
2022-10-29T10:53:56.084Z,864.02
2022-10-29T10:54:56.027Z,864.03
2022-10-29T10:55:56.121Z,864.01
2022-10-29T10:56:56.004Z,864.04
2022-10-29T10:57:55.992Z,863.99
2022-10-29T10:58:55.980Z,863.99
2022-10-29T10:59:56.020Z,863.99
2022-10-29T11:00:56.011Z,863.97
2022-10-29T11:01:56.082Z,863.93
2022-10-29T11:02:56.215Z,863.85
2022-10-29T11:03:55.934Z,863.84
2022-10-29T11:04:55.933Z,863.89
2022-10-29T11:05:55.955Z,863.86
2022-10-29T11:06:55.892Z,863.84
2022-10-29T11:07:56.345Z,863.84
2022-10-29T11:08:55.872Z,863.84
2022-10-29T11:09:55.861Z,863.82
2022-10-29T11:10:55.850Z,863.80
2022-10-29T11:11:59.071Z,863.78
2022-10-29T11:12:55.832Z,863.78
2022-10-29T11:13:55.829Z,863.81
2022-10-29T11:14:55.809Z,863.74
2022-10-29T11:15:55.825Z,863.77
2022-10-29T11:16:55.792Z,863.77
2022-10-29T11:17:56.300Z,863.73
2022-10-29T11:18:55.777Z,863.74
2022-10-29T11:19:55.761Z,863.70
2022-10-29T11:20:55.741Z,863.71
2022-10-29T11:21:55.732Z,863.71
2022-10-29T11:22:56.111Z,863.74
2022-10-29T11:23:55.770Z,863.71
2022-10-29T11:24:55.696Z,863.66
2022-10-29T11:25:55.686Z,863.64
2022-10-29T11:26:55.740Z,863.64
2022-10-29T11:27:55.666Z,863.65
2022-10-29T11:28:55.683Z,863.64
2022-10-29T11:29:55.660Z,863.61
2022-10-29T11:30:55.631Z,863.61
2022-10-29T11:31:55.659Z,863.58
2022-10-29T11:32:56.067Z,863.61
2022-10-29T11:33:55.610Z,863.59
2022-10-29T11:34:55.613Z,863.58
2022-10-29T11:35:57.513Z,863.54
2022-10-29T11:36:56.663Z,863.54
2022-10-29T11:37:55.851Z,863.52
2022-10-29T11:38:55.543Z,863.48
2022-10-29T11:39:55.552Z,863.51
2022-10-29T11:40:55.550Z,863.47
2022-10-29T11:41:55.513Z,863.44
2022-10-29T11:42:55.501Z,863.47
2022-10-29T11:43:55.490Z,863.45
2022-10-29T11:44:55.478Z,863.46
2022-10-29T11:45:55.480Z,863.43
2022-10-29T11:46:55.487Z,863.41
2022-10-29T11:47:55.850Z,863.35
2022-10-29T11:48:55.440Z,863.34
2022-10-29T11:49:55.428Z,863.37
2022-10-29T11:50:55.426Z,863.35
2022-10-29T11:51:55.402Z,863.39
2022-10-29T11:52:55.682Z,863.41
2022-10-29T11:53:55.382Z,863.31
2022-10-29T11:54:55.367Z,863.34
2022-10-29T11:55:55.359Z,863.30
2022-10-29T11:56:55.454Z,863.28
2022-10-29T11:57:55.338Z,863.26
2022-10-29T11:58:55.388Z,863.30
2022-10-29T11:59:55.317Z,863.32
2022-10-29T12:00:55.303Z,863.27
2022-10-29T12:01:55.393Z,863.24
2022-10-29T12:02:55.641Z,863.25
2022-10-29T12:03:55.373Z,863.23
2022-10-29T12:04:55.298Z,863.22
2022-10-29T12:05:55.263Z,863.20
2022-10-29T12:06:55.241Z,863.16
2022-10-29T12:07:55.542Z,863.15
2022-10-29T12:08:55.226Z,863.17
2022-10-29T12:09:55.209Z,863.14
2022-10-29T12:10:55.255Z,863.14
2022-10-29T12:11:55.186Z,863.14
2022-10-29T12:12:55.185Z,863.10
2022-10-29T12:13:55.166Z,863.10
2022-10-29T12:14:55.171Z,863.10
2022-10-29T12:15:55.150Z,863.05
2022-10-29T12:16:55.172Z,863.06
2022-10-29T12:17:55.493Z,863.05
2022-10-29T12:18:55.117Z,863.06
2022-10-29T12:19:55.255Z,863.09
2022-10-29T12:20:55.087Z,863.01
2022-10-29T12:21:55.078Z,863.01
2022-10-29T12:23:00.745Z,862.99
2022-10-29T12:23:56.085Z,862.97
2022-10-29T12:24:55.045Z,862.98
2022-10-29T12:25:55.033Z,862.96
2022-10-29T12:26:55.018Z,862.96
2022-10-29T12:27:55.011Z,862.95
2022-10-29T12:28:55.079Z,862.94
2022-10-29T12:29:54.990Z,862.91
2022-10-29T12:30:54.977Z,862.95
2022-10-29T12:31:54.966Z,862.94
2022-10-29T12:32:55.425Z,862.90
2022-10-29T12:33:54.944Z,862.89
2022-10-29T12:34:54.988Z,862.89